x

Tanner Bank - 121nm West Of San Diego, Ca (46047) Wave Buoy

10:50 - Fri 24th Feb 2017 All times are PST. -8 hours from GMT.

  • Sig Wave height 8.2ft
  • Swell Direction
  • Peak Period 9s
  • Average Period 6s
  • Wind
    20mph, 25mph gusts
  • Sea Temp 59°f
  • Ar Temp 55°f
  • Sea Pressure 1022.9mb
  • Tanner Bank - 121nm West Of San Diego, Ca
  • Tanner Bank - 121nm West Of San Diego, Ca

More Historic Weather Station data

Upgrade to MSW Pro to gain access to the past 30 days of data for over 8000 Wavebouys and Weather Stations around the globe.

Join Pro

Comparision Forecast

View Surf forecast
   
Sex 02/24 10:50 8ft 9s 6s 20 25 mph 1022.9mb 59f 55f
9:50 8.5ft 9s 6s 20 25 mph 1022.5mb 59f 54f
8:50 9ft 9s 7s 20 25 mph 1022.3mb 59f 54f
7:50 8ft 9s 6s 22 27 mph 1021.6mb 59f 54f
6:50 8.5ft 9s 7s 22 27 mph 1021.3mb 59f 54f
5:50 8.5ft 8s 6s 18 25 mph 1021mb 59f 54f
4:50 9ft 9s 7s 22 27 mph 1020mb 59f 54f
3:50 9ft 8s 6s 22 27 mph 1020.2mb 59f 54f
2:50 9.5ft 8s 7s 22 27 mph 1020.2mb 59f 54f
1:50 10ft 9s 6s 25 29 mph 1020.8mb 59f 54f
12:50 10ft 8s 6s 25 29 mph 1020.8mb 59f 54f
Qui 02/23 11:50 10ft 8s 7s 25 29 mph 1020.8mb 59f 54f
10:50 10ft 9s 6s 25 31 mph 1020.6mb 59f 54f
9:50 11ft 8s 7s 29 34 mph 1020.4mb 59f 54f
8:50 10.5ft 8s 7s 27 34 mph 1020.2mb 59f 54f
7:50 10ft 8s 6s 29 34 mph 1019.8mb 59f 54f
6:50 10.5ft 8s 7s 29 34 mph 1019.8mb 59f 54f
5:50 11ft 8s 7s 27 34 mph 1019.6mb 59f 54f
4:50 11.5ft 9s 7s 27 34 mph 1019.6mb 59f 54f
3:50 12ft 8s 7s 27 34 mph 1019.6mb 59f 54f
2:50 11ft 9s 7s 29 36 mph 1019.4mb 59f 54f
1:50 11ft 8s 7s 29 34 mph 1019.9mb 59f 54f
12:50 12.5ft 9s 7s 27 34 mph 1020.5mb 59f 54f
11:50 12ft 8s 7s 27 34 mph 1021.3mb 59f 54f
10:50 12ft 8s 7s 27 36 mph 1021.5mb 59f 54f
9:50 12ft 9s 7s 27 34 mph 1021.1mb 59f 54f
8:50 11.5ft 12s 7s 27 34 mph 1020.8mb 59f 54f
7:50 12.5ft 9s 7s 29 36 mph 1020.3mb 59f 54f
6:50 13.5ft 10s 7s 29 36 mph 1020mb 59f 54f
5:50 12.5ft 9s 7s 27 34 mph 1020.1mb 59f 54f
4:50 12ft 13s 7s 29 36 mph 1019.7mb 59f 54f
3:50 12ft 13s 7s 31 38 mph 1019mb 59f 55f
2:50 12ft 8s 7s 29 36 mph 1019.1mb 59f 55f
1:50 11.5ft 8s 7s 29 36 mph 1019.5mb 59f 55f
12:50 13ft 9s 7s 29 38 mph 1020mb 60f 55f
Qua 02/22 11:50 13ft 8s 7s 29 36 mph 1020.1mb 60f 55f
10:50 13ft 8s 8s 29 34 mph 1020.4mb 59f 55f
9:50 13ft 8s 7s 27 34 mph 1020.4mb 59f 56f
8:50 12ft 8s 7s 27 34 mph 1020.3mb 59f 56f
7:50 13ft 7s 8s 29 34 mph 1019.8mb 59f 56f
6:50 12ft 13s 7s 27 31 mph 1019.9mb 59f 56f
5:50 12ft 14s 7s 27 36 mph 1019.7mb 59f 56f
4:50 11.5ft 13s 8s 29 36 mph 1019.6mb 59f 56f
3:50 11ft 15s 8s 29 34 mph 1019.8mb 59f 56f
2:50 11.5ft 15s 9s 25 31 mph 1019.9mb 59f 57f
1:50 11ft 15s 9s 25 29 mph 1020.3mb 59f 57f
12:50 10.5ft 15s 8s 22 25 mph 1020.9mb 59f 57f
11:50 10ft 16s 8s 20 27 mph 1021.7mb 59f 57f
10:50 9ft 12s 8s 20 25 mph 1022.2mb 59f 57f
9:50 11ft 16s 9s 20 25 mph 1022.4mb 59f 57f
8:50 9.5ft 15s 8s 18 20 mph 1022.6mb 59f 57f
7:50 10.5ft 15s 9s 18 20 mph 1022mb 59f 57f
6:50 9.5ft 16s 9s 18 22 mph 1021.7mb 59f 57f
5:50 10ft 13s 9s 16 20 mph 1021.7mb 59f 58f
4:50 9ft 12s 8s 16 20 mph 1021.6mb 59f 58f
2:50 10ft 11s 9s 16 20 mph 1022.2mb 60f 58f
1:50 10ft 13s 9s 13 18 mph 1022.7mb 60f 58f
12:50 10ft 12s 9s 13 18 mph 1023.2mb 60f 59f
Ter 02/21 11:50 9ft 11s 9s 16 18 mph 1023.7mb 60f 59f
10:50 10ft 12s 9s 13 18 mph 1024.2mb 60f 58f
9:50 10ft 12s 10s 11 13 mph 1024.2mb 60f 58f
8:50 10ft 12s 10s 7 9 mph 1024.2mb 60f 58f
7:50 9.5ft 12s 10s 9 13 mph 1023.9mb 60f 58f
6:50 8.5ft 13s 9s 9 11 mph 1023.8mb 60f 58f
5:50 10ft 11s 10s 9 11 mph 1023.8mb 60f 59f
4:50 9ft 13s 10s 9 13 mph 1023.9mb 60f 60f
3:50 8.5ft 13s 10s 2 4 mph 1023.9mb 60f 61f
2:50 9ft 13s 10s 9 11 mph 1024.4mb 61f 61f
1:50 8.5ft 13s 10s 7 11 mph 1024.6mb 61f 61f
12:50 8ft 12s 10s 4 7 mph 1025.6mb 60f 61f
11:50 9ft 13s 10s 4 7 mph 1026.4mb 60f 60f
10:50 7ft 14s 9s 7 9 mph 1027.2mb 60f 60f
9:50 8.5ft 14s 10s 7
mph
1026.7mb 59f 60f
8:50 9ft 14s 10s 7 9 mph 1026.5mb 59f 59f
7:50 9ft 15s 9s 7 9 mph 1026.1mb 59f 59f
6:50 8ft 14s 9s 9 11 mph 1025.6mb 59f 59f
5:50 8.5ft 13s 9s 7
mph
1025.3mb 59f 59f
4:50 9ft 14s 9s 7 9 mph 1025mb 59f 59f
3:50 9.5ft 14s 9s 7 9 mph 1025mb 59f 59f
2:50 9ft 15s 10s 7 9 mph 1025.4mb 59f 59f
1:50 10ft 16s 10s 7 9 mph 1026mb 59f 59f
12:50 10ft 15s 10s 9 11 mph 1026mb 59f 59f
Seg 02/20 11:50 10.5ft 15s 11s 7 9 mph 1026.1mb 59f 60f
10:50 10ft 16s 10s 7 9 mph 1026mb 59f 60f
9:50 11ft 15s 11s 7 9 mph 1025.9mb 59f 60f
8:50 11ft 15s 11s 7 9 mph 1025.7mb 59f 60f